sensor_id;sensor_type;location;lat;lon;timestamp;P1;durP1;ratioP1;P2;durP2;ratioP2
59169;SDS011;52474;52.236;5.114;2024-02-21T00:02:11;19.95;;;4.20;;
59169;SDS011;52474;52.236;5.114;2024-02-21T00:04:36;16.58;;;3.78;;
59169;SDS011;52474;52.236;5.114;2024-02-21T00:07:04;24.17;;;4.45;;
59169;SDS011;52474;52.236;5.114;2024-02-21T00:09:30;19.58;;;3.80;;
59169;SDS011;52474;52.236;5.114;2024-02-21T00:11:55;23.98;;;3.72;;
59169;SDS011;52474;52.236;5.114;2024-02-21T00:14:21;22.48;;;4.10;;
59169;SDS011;52474;52.236;5.114;2024-02-21T00:16:47;20.17;;;4.03;;
59169;SDS011;52474;52.236;5.114;2024-02-21T00:19:13;25.25;;;4.32;;
59169;SDS011;52474;52.236;5.114;2024-02-21T00:21:39;18.65;;;3.83;;
59169;SDS011;52474;52.236;5.114;2024-02-21T00:24:05;19.80;;;4.20;;
59169;SDS011;52474;52.236;5.114;2024-02-21T00:26:31;21.02;;;3.97;;
59169;SDS011;52474;52.236;5.114;2024-02-21T00:28:57;20.27;;;4.40;;
59169;SDS011;52474;52.236;5.114;2024-02-21T00:31:22;26.30;;;4.68;;
59169;SDS011;52474;52.236;5.114;2024-02-21T00:33:48;16.77;;;3.83;;
59169;SDS011;52474;52.236;5.114;2024-02-21T00:36:14;19.60;;;4.03;;
59169;SDS011;52474;52.236;5.114;2024-02-21T00:38:40;22.75;;;4.53;;
59169;SDS011;52474;52.236;5.114;2024-02-21T00:41:06;21.45;;;4.05;;
59169;SDS011;52474;52.236;5.114;2024-02-21T00:43:31;22.70;;;4.55;;
59169;SDS011;52474;52.236;5.114;2024-02-21T00:45:57;21.02;;;4.57;;
59169;SDS011;52474;52.236;5.114;2024-02-21T00:48:23;22.38;;;4.68;;
59169;SDS011;52474;52.236;5.114;2024-02-21T00:50:48;26.25;;;4.53;;
59169;SDS011;52474;52.236;5.114;2024-02-21T00:53:14;17.83;;;3.92;;
59169;SDS011;52474;52.236;5.114;2024-02-21T00:55:40;15.02;;;3.40;;
59169;SDS011;52474;52.236;5.114;2024-02-21T00:58:05;23.80;;;4.35;;
59169;SDS011;52474;52.236;5.114;2024-02-21T01:00:31;19.17;;;4.07;;
59169;SDS011;52474;52.236;5.114;2024-02-21T01:02:57;24.08;;;5.00;;
59169;SDS011;52474;52.236;5.114;2024-02-21T01:05:23;20.35;;;3.78;;
59169;SDS011;52474;52.236;5.114;2024-02-21T01:07:48;20.88;;;4.47;;
59169;SDS011;52474;52.236;5.114;2024-02-21T01:10:14;20.65;;;4.32;;
59169;SDS011;52474;52.236;5.114;2024-02-21T01:12:40;15.27;;;3.53;;
59169;SDS011;52474;52.236;5.114;2024-02-21T01:15:05;24.17;;;4.20;;
59169;SDS011;52474;52.236;5.114;2024-02-21T01:17:31;22.42;;;3.70;;
59169;SDS011;52474;52.236;5.114;2024-02-21T01:19:57;23.15;;;4.30;;
59169;SDS011;52474;52.236;5.114;2024-02-21T01:22:22;15.95;;;3.70;;
59169;SDS011;52474;52.236;5.114;2024-02-21T01:24:48;18.92;;;3.85;;
59169;SDS011;52474;52.236;5.114;2024-02-21T01:27:13;21.95;;;4.43;;
59169;SDS011;52474;52.236;5.114;2024-02-21T01:29:39;20.70;;;4.13;;
59169;SDS011;52474;52.236;5.114;2024-02-21T01:32:05;24.38;;;4.40;;
59169;SDS011;52474;52.236;5.114;2024-02-21T01:34:30;14.55;;;4.35;;
59169;SDS011;52474;52.236;5.114;2024-02-21T01:36:56;19.40;;;4.78;;
59169;SDS011;52474;52.236;5.114;2024-02-21T01:39:22;16.70;;;3.85;;
59169;SDS011;52474;52.236;5.114;2024-02-21T01:41:47;22.85;;;4.22;;
59169;SDS011;52474;52.236;5.114;2024-02-21T01:44:13;20.35;;;5.10;;
59169;SDS011;52474;52.236;5.114;2024-02-21T01:46:39;17.50;;;3.90;;
59169;SDS011;52474;52.236;5.114;2024-02-21T01:49:05;24.73;;;4.55;;
59169;SDS011;52474;52.236;5.114;2024-02-21T01:51:31;20.70;;;4.53;;
59169;SDS011;52474;52.236;5.114;2024-02-21T01:53:57;19.35;;;4.18;;
59169;SDS011;52474;52.236;5.114;2024-02-21T01:56:23;18.83;;;4.78;;
59169;SDS011;52474;52.236;5.114;2024-02-21T01:58:49;22.00;;;4.43;;
59169;SDS011;52474;52.236;5.114;2024-02-21T02:01:16;22.90;;;4.50;;
59169;SDS011;52474;52.236;5.114;2024-02-21T02:03:42;18.25;;;4.18;;
59169;SDS011;52474;52.236;5.114;2024-02-21T02:06:10;25.33;;;4.40;;
59169;SDS011;52474;52.236;5.114;2024-02-21T02:08:36;25.70;;;4.38;;
59169;SDS011;52474;52.236;5.114;2024-02-21T02:11:02;26.67;;;4.97;;
59169;SDS011;52474;52.236;5.114;2024-02-21T02:13:28;22.35;;;5.10;;
59169;SDS011;52474;52.236;5.114;2024-02-21T02:15:54;14.32;;;4.43;;
59169;SDS011;52474;52.236;5.114;2024-02-21T02:18:20;18.17;;;4.30;;
59169;SDS011;52474;52.236;5.114;2024-02-21T02:20:46;20.30;;;4.05;;
59169;SDS011;52474;52.236;5.114;2024-02-21T02:25:57;22.30;;;4.70;;
59169;SDS011;52474;52.236;5.114;2024-02-21T02:28:23;20.23;;;4.57;;
59169;SDS011;52474;52.236;5.114;2024-02-21T02:30:49;21.20;;;5.20;;
59169;SDS011;52474;52.236;5.114;2024-02-21T02:33:15;22.63;;;5.10;;
59169;SDS011;52474;52.236;5.114;2024-02-21T02:35:43;19.38;;;5.38;;
59169;SDS011;52474;52.236;5.114;2024-02-21T02:38:09;25.77;;;4.95;;
59169;SDS011;52474;52.236;5.114;2024-02-21T02:40:36;25.30;;;4.68;;
59169;SDS011;52474;52.236;5.114;2024-02-21T02:43:04;16.98;;;3.88;;
59169;SDS011;52474;52.236;5.114;2024-02-21T02:45:29;23.02;;;4.53;;
59169;SDS011;52474;52.236;5.114;2024-02-21T02:47:56;20.80;;;4.88;;
59169;SDS011;52474;52.236;5.114;2024-02-21T02:50:24;20.23;;;4.40;;
59169;SDS011;52474;52.236;5.114;2024-02-21T02:52:51;20.85;;;4.97;;
59169;SDS011;52474;52.236;5.114;2024-02-21T02:55:20;22.75;;;4.65;;
59169;SDS011;52474;52.236;5.114;2024-02-21T02:57:46;20.60;;;4.63;;
59169;SDS011;52474;52.236;5.114;2024-02-21T03:00:12;16.70;;;4.63;;
59169;SDS011;52474;52.236;5.114;2024-02-21T03:02:39;23.73;;;4.43;;
59169;SDS011;52474;52.236;5.114;2024-02-21T03:05:21;19.70;;;5.03;;
59169;SDS011;52474;52.236;5.114;2024-02-21T03:07:48;16.52;;;4.25;;
59169;SDS011;52474;52.236;5.114;2024-02-21T03:10:17;15.35;;;4.68;;
59169;SDS011;52474;52.236;5.114;2024-02-21T03:12:43;22.23;;;4.75;;
59169;SDS011;52474;52.236;5.114;2024-02-21T03:15:08;25.88;;;5.05;;
59169;SDS011;52474;52.236;5.114;2024-02-21T03:17:34;20.20;;;5.18;;
59169;SDS011;52474;52.236;5.114;2024-02-21T03:20:03;21.45;;;5.95;;
59169;SDS011;52474;52.236;5.114;2024-02-21T03:22:38;18.75;;;4.95;;
59169;SDS011;52474;52.236;5.114;2024-02-21T03:25:05;17.98;;;4.95;;
59169;SDS011;52474;52.236;5.114;2024-02-21T03:27:32;18.08;;;4.45;;
59169;SDS011;52474;52.236;5.114;2024-02-21T03:29:58;20.48;;;5.03;;
59169;SDS011;52474;52.236;5.114;2024-02-21T03:32:24;20.50;;;5.32;;
59169;SDS011;52474;52.236;5.114;2024-02-21T03:34:49;17.80;;;5.50;;
59169;SDS011;52474;52.236;5.114;2024-02-21T03:37:15;20.25;;;4.85;;
59169;SDS011;52474;52.236;5.114;2024-02-21T03:39:41;19.20;;;5.93;;
59169;SDS011;52474;52.236;5.114;2024-02-21T03:42:07;19.73;;;5.20;;
59169;SDS011;52474;52.236;5.114;2024-02-21T03:44:32;19.10;;;5.32;;
59169;SDS011;52474;52.236;5.114;2024-02-21T03:46:59;22.60;;;5.30;;
59169;SDS011;52474;52.236;5.114;2024-02-21T03:49:25;16.20;;;4.70;;
59169;SDS011;52474;52.236;5.114;2024-02-21T03:51:51;16.33;;;4.80;;
59169;SDS011;52474;52.236;5.114;2024-02-21T03:54:17;23.23;;;5.55;;
59169;SDS011;52474;52.236;5.114;2024-02-21T03:56:43;18.63;;;4.82;;
59169;SDS011;52474;52.236;5.114;2024-02-21T03:59:09;17.20;;;5.20;;
59169;SDS011;52474;52.236;5.114;2024-02-21T04:01:35;22.52;;;5.18;;
59169;SDS011;52474;52.236;5.114;2024-02-21T04:04:01;27.42;;;5.20;;
59169;SDS011;52474;52.236;5.114;2024-02-21T04:06:27;16.70;;;5.10;;
59169;SDS011;52474;52.236;5.114;2024-02-21T04:08:53;23.77;;;5.45;;
59169;SDS011;52474;52.236;5.114;2024-02-21T04:11:18;20.02;;;6.00;;
59169;SDS011;52474;52.236;5.114;2024-02-21T04:13:44;23.13;;;5.78;;
59169;SDS011;52474;52.236;5.114;2024-02-21T04:16:10;18.85;;;5.82;;
59169;SDS011;52474;52.236;5.114;2024-02-21T04:18:36;20.45;;;6.00;;
59169;SDS011;52474;52.236;5.114;2024-02-21T04:21:01;20.60;;;5.55;;
59169;SDS011;52474;52.236;5.114;2024-02-21T04:23:27;15.48;;;6.05;;
59169;SDS011;52474;52.236;5.114;2024-02-21T04:25:53;17.25;;;6.80;;
59169;SDS011;52474;52.236;5.114;2024-02-21T04:28:19;26.88;;;6.88;;
59169;SDS011;52474;52.236;5.114;2024-02-21T04:30:44;17.77;;;7.05;;
59169;SDS011;52474;52.236;5.114;2024-02-21T04:33:10;27.88;;;7.40;;
59169;SDS011;52474;52.236;5.114;2024-02-21T04:35:36;22.67;;;7.35;;
59169;SDS011;52474;52.236;5.114;2024-02-21T04:38:02;23.25;;;7.70;;
59169;SDS011;52474;52.236;5.114;2024-02-21T04:40:27;23.10;;;8.25;;
59169;SDS011;52474;52.236;5.114;2024-02-21T04:42:54;26.45;;;8.82;;
59169;SDS011;52474;52.236;5.114;2024-02-21T04:45:20;22.42;;;8.50;;
59169;SDS011;52474;52.236;5.114;2024-02-21T04:47:45;17.67;;;8.15;;
59169;SDS011;52474;52.236;5.114;2024-02-21T04:50:11;18.38;;;8.75;;
59169;SDS011;52474;52.236;5.114;2024-02-21T04:52:38;19.42;;;7.82;;
59169;SDS011;52474;52.236;5.114;2024-02-21T04:55:03;21.20;;;8.02;;
59169;SDS011;52474;52.236;5.114;2024-02-21T04:57:29;17.75;;;7.90;;
59169;SDS011;52474;52.236;5.114;2024-02-21T04:59:55;18.25;;;9.02;;
59169;SDS011;52474;52.236;5.114;2024-02-21T05:02:21;22.33;;;9.63;;
59169;SDS011;52474;52.236;5.114;2024-02-21T05:04:49;21.80;;;8.10;;
59169;SDS011;52474;52.236;5.114;2024-02-21T05:07:16;21.65;;;9.40;;
59169;SDS011;52474;52.236;5.114;2024-02-21T05:09:42;22.70;;;9.88;;
59169;SDS011;52474;52.236;5.114;2024-02-21T05:12:08;23.08;;;9.02;;
59169;SDS011;52474;52.236;5.114;2024-02-21T05:14:34;21.27;;;9.32;;
59169;SDS011;52474;52.236;5.114;2024-02-21T05:16:59;22.75;;;9.93;;
59169;SDS011;52474;52.236;5.114;2024-02-21T05:19:25;20.23;;;10.02;;
59169;SDS011;52474;52.236;5.114;2024-02-21T05:21:51;20.77;;;9.80;;
59169;SDS011;52474;52.236;5.114;2024-02-21T05:24:16;21.48;;;9.13;;
59169;SDS011;52474;52.236;5.114;2024-02-21T05:26:42;19.33;;;10.05;;
59169;SDS011;52474;52.236;5.114;2024-02-21T05:29:08;22.00;;;9.70;;
59169;SDS011;52474;52.236;5.114;2024-02-21T05:34:18;19.15;;;8.90;;
59169;SDS011;52474;52.236;5.114;2024-02-21T05:36:44;21.10;;;8.55;;
59169;SDS011;52474;52.236;5.114;2024-02-21T05:39:11;21.10;;;10.32;;
59169;SDS011;52474;52.236;5.114;2024-02-21T05:41:37;19.10;;;9.77;;
59169;SDS011;52474;52.236;5.114;2024-02-21T05:44:02;19.15;;;9.25;;
59169;SDS011;52474;52.236;5.114;2024-02-21T05:46:28;23.38;;;10.38;;
59169;SDS011;52474;52.236;5.114;2024-02-21T05:48:54;23.42;;;9.15;;
59169;SDS011;52474;52.236;5.114;2024-02-21T05:51:20;22.63;;;10.30;;
59169;SDS011;52474;52.236;5.114;2024-02-21T05:53:45;25.88;;;9.75;;
59169;SDS011;52474;52.236;5.114;2024-02-21T05:56:11;20.40;;;9.90;;
59169;SDS011;52474;52.236;5.114;2024-02-21T05:58:38;19.85;;;10.60;;
59169;SDS011;52474;52.236;5.114;2024-02-21T06:01:04;21.15;;;10.80;;
59169;SDS011;52474;52.236;5.114;2024-02-21T06:03:32;25.85;;;11.75;;
59169;SDS011;52474;52.236;5.114;2024-02-21T06:05:58;26.50;;;11.98;;
59169;SDS011;52474;52.236;5.114;2024-02-21T06:08:24;22.27;;;12.23;;
59169;SDS011;52474;52.236;5.114;2024-02-21T06:10:50;23.02;;;11.07;;
59169;SDS011;52474;52.236;5.114;2024-02-21T06:13:28;24.13;;;11.88;;
59169;SDS011;52474;52.236;5.114;2024-02-21T06:15:54;25.25;;;11.57;;
59169;SDS011;52474;52.236;5.114;2024-02-21T06:18:20;27.08;;;11.70;;
59169;SDS011;52474;52.236;5.114;2024-02-21T06:20:46;23.20;;;11.88;;
59169;SDS011;52474;52.236;5.114;2024-02-21T06:23:12;20.52;;;11.73;;
59169;SDS011;52474;52.236;5.114;2024-02-21T06:25:41;23.40;;;13.45;;
59169;SDS011;52474;52.236;5.114;2024-02-21T06:28:06;24.20;;;11.90;;
59169;SDS011;52474;52.236;5.114;2024-02-21T06:30:32;26.98;;;12.07;;
59169;SDS011;52474;52.236;5.114;2024-02-21T06:32:59;22.20;;;12.20;;
59169;SDS011;52474;52.236;5.114;2024-02-21T06:35:25;24.65;;;12.38;;
59169;SDS011;52474;52.236;5.114;2024-02-21T06:37:51;26.45;;;13.55;;
59169;SDS011;52474;52.236;5.114;2024-02-21T06:40:23;20.63;;;12.05;;
59169;SDS011;52474;52.236;5.114;2024-02-21T06:42:49;28.48;;;12.77;;
59169;SDS011;52474;52.236;5.114;2024-02-21T06:45:15;24.50;;;12.93;;
59169;SDS011;52474;52.236;5.114;2024-02-21T06:47:41;24.23;;;13.55;;
59169;SDS011;52474;52.236;5.114;2024-02-21T06:50:07;24.25;;;13.40;;
59169;SDS011;52474;52.236;5.114;2024-02-21T06:52:36;23.95;;;13.63;;
59169;SDS011;52474;52.236;5.114;2024-02-21T06:55:02;23.77;;;12.82;;
59169;SDS011;52474;52.236;5.114;2024-02-21T06:57:28;23.83;;;12.82;;
59169;SDS011;52474;52.236;5.114;2024-02-21T06:59:54;26.33;;;13.68;;
59169;SDS011;52474;52.236;5.114;2024-02-21T07:02:20;24.63;;;14.13;;
59169;SDS011;52474;52.236;5.114;2024-02-21T07:04:46;27.42;;;14.00;;
59169;SDS011;52474;52.236;5.114;2024-02-21T07:07:11;25.67;;;11.88;;
59169;SDS011;52474;52.236;5.114;2024-02-21T07:09:38;29.95;;;13.65;;
59169;SDS011;52474;52.236;5.114;2024-02-21T07:12:04;26.77;;;13.95;;
59169;SDS011;52474;52.236;5.114;2024-02-21T07:14:31;28.35;;;14.77;;
59169;SDS011;52474;52.236;5.114;2024-02-21T07:16:58;26.08;;;13.98;;
59169;SDS011;52474;52.236;5.114;2024-02-21T07:19:23;31.77;;;14.57;;
59169;SDS011;52474;52.236;5.114;2024-02-21T07:21:49;27.95;;;13.13;;
59169;SDS011;52474;52.236;5.114;2024-02-21T07:24:15;28.08;;;12.90;;
59169;SDS011;52474;52.236;5.114;2024-02-21T07:26:41;25.20;;;13.50;;
59169;SDS011;52474;52.236;5.114;2024-02-21T07:29:08;25.65;;;13.98;;
59169;SDS011;52474;52.236;5.114;2024-02-21T07:31:40;27.60;;;13.50;;
59169;SDS011;52474;52.236;5.114;2024-02-21T07:34:07;27.95;;;14.25;;
59169;SDS011;52474;52.236;5.114;2024-02-21T07:36:32;33.72;;;13.15;;
59169;SDS011;52474;52.236;5.114;2024-02-21T07:38:58;29.15;;;14.07;;
59169;SDS011;52474;52.236;5.114;2024-02-21T07:41:24;25.75;;;13.70;;
59169;SDS011;52474;52.236;5.114;2024-02-21T07:43:50;33.17;;;14.68;;
59169;SDS011;52474;52.236;5.114;2024-02-21T07:46:17;35.13;;;13.45;;
59169;SDS011;52474;52.236;5.114;2024-02-21T07:48:45;28.98;;;13.73;;
59169;SDS011;52474;52.236;5.114;2024-02-21T07:51:11;27.63;;;13.40;;
59169;SDS011;52474;52.236;5.114;2024-02-21T07:53:38;30.08;;;13.68;;
59169;SDS011;52474;52.236;5.114;2024-02-21T07:56:04;30.20;;;13.50;;
59169;SDS011;52474;52.236;5.114;2024-02-21T07:58:30;25.77;;;12.63;;
59169;SDS011;52474;52.236;5.114;2024-02-21T08:00:58;24.95;;;11.77;;
59169;SDS011;52474;52.236;5.114;2024-02-21T08:03:24;29.13;;;13.50;;
59169;SDS011;52474;52.236;5.114;2024-02-21T08:05:51;26.00;;;13.35;;
59169;SDS011;52474;52.236;5.114;2024-02-21T08:08:16;27.05;;;14.55;;
59169;SDS011;52474;52.236;5.114;2024-02-21T08:10:45;27.75;;;13.88;;
59169;SDS011;52474;52.236;5.114;2024-02-21T08:13:11;27.67;;;14.27;;
59169;SDS011;52474;52.236;5.114;2024-02-21T08:15:37;31.45;;;14.80;;
59169;SDS011;52474;52.236;5.114;2024-02-21T08:18:05;31.15;;;14.43;;
59169;SDS011;52474;52.236;5.114;2024-02-21T08:20:31;27.08;;;13.60;;
59169;SDS011;52474;52.236;5.114;2024-02-21T08:22:56;29.50;;;13.38;;
59169;SDS011;52474;52.236;5.114;2024-02-21T08:25:22;30.80;;;14.80;;
59169;SDS011;52474;52.236;5.114;2024-02-21T08:27:47;27.95;;;15.05;;
59169;SDS011;52474;52.236;5.114;2024-02-21T08:30:13;28.67;;;13.80;;
59169;SDS011;52474;52.236;5.114;2024-02-21T08:32:39;27.38;;;13.27;;
59169;SDS011;52474;52.236;5.114;2024-02-21T08:35:05;27.02;;;14.68;;
59169;SDS011;52474;52.236;5.114;2024-02-21T08:37:31;25.48;;;14.02;;
59169;SDS011;52474;52.236;5.114;2024-02-21T08:39:57;30.40;;;14.82;;
59169;SDS011;52474;52.236;5.114;2024-02-21T08:42:23;30.30;;;15.55;;
59169;SDS011;52474;52.236;5.114;2024-02-21T08:44:48;33.72;;;14.55;;
59169;SDS011;52474;52.236;5.114;2024-02-21T08:47:14;26.52;;;14.95;;
59169;SDS011;52474;52.236;5.114;2024-02-21T08:49:40;29.15;;;14.27;;
59169;SDS011;52474;52.236;5.114;2024-02-21T08:52:06;30.02;;;14.50;;
59169;SDS011;52474;52.236;5.114;2024-02-21T08:54:34;32.30;;;14.65;;
59169;SDS011;52474;52.236;5.114;2024-02-21T08:57:00;32.58;;;16.42;;
59169;SDS011;52474;52.236;5.114;2024-02-21T08:59:25;31.35;;;14.40;;
59169;SDS011;52474;52.236;5.114;2024-02-21T09:01:51;27.08;;;14.10;;
59169;SDS011;52474;52.236;5.114;2024-02-21T09:04:20;29.25;;;15.05;;
59169;SDS011;52474;52.236;5.114;2024-02-21T09:06:46;32.67;;;16.42;;
59169;SDS011;52474;52.236;5.114;2024-02-21T09:09:12;36.00;;;16.58;;
59169;SDS011;52474;52.236;5.114;2024-02-21T09:11:37;34.55;;;16.15;;
59169;SDS011;52474;52.236;5.114;2024-02-21T09:14:03;33.83;;;18.42;;
59169;SDS011;52474;52.236;5.114;2024-02-21T09:16:32;37.15;;;17.48;;
59169;SDS011;52474;52.236;5.114;2024-02-21T09:18:58;34.33;;;18.45;;
59169;SDS011;52474;52.236;5.114;2024-02-21T09:21:24;30.02;;;18.45;;
59169;SDS011;52474;52.236;5.114;2024-02-21T09:23:49;33.17;;;18.98;;
59169;SDS011;52474;52.236;5.114;2024-02-21T09:26:15;36.78;;;18.73;;
59169;SDS011;52474;52.236;5.114;2024-02-21T09:28:42;35.22;;;18.23;;
59169;SDS011;52474;52.236;5.114;2024-02-21T09:31:08;31.00;;;16.15;;
59169;SDS011;52474;52.236;5.114;2024-02-21T09:33:34;32.45;;;16.25;;
59169;SDS011;52474;52.236;5.114;2024-02-21T09:36:00;33.88;;;16.00;;
59169;SDS011;52474;52.236;5.114;2024-02-21T09:38:36;35.35;;;16.20;;
59169;SDS011;52474;52.236;5.114;2024-02-21T09:41:18;30.02;;;15.10;;
59169;SDS011;52474;52.236;5.114;2024-02-21T09:43:46;31.83;;;16.45;;
59169;SDS011;52474;52.236;5.114;2024-02-21T09:46:13;28.25;;;15.30;;
59169;SDS011;52474;52.236;5.114;2024-02-21T09:51:38;25.80;;;14.57;;
59169;SDS011;52474;52.236;5.114;2024-02-21T09:54:06;25.08;;;13.80;;
59169;SDS011;52474;52.236;5.114;2024-02-21T09:56:33;28.13;;;13.55;;
59169;SDS011;52474;52.236;5.114;2024-02-21T09:58:58;24.13;;;12.88;;
59169;SDS011;52474;52.236;5.114;2024-02-21T10:01:25;23.67;;;13.35;;
59169;SDS011;52474;52.236;5.114;2024-02-21T10:03:51;24.40;;;13.35;;
59169;SDS011;52474;52.236;5.114;2024-02-21T10:06:17;20.95;;;13.43;;
59169;SDS011;52474;52.236;5.114;2024-02-21T10:08:42;22.58;;;11.25;;
59169;SDS011;52474;52.236;5.114;2024-02-21T10:11:08;18.45;;;10.40;;
59169;SDS011;52474;52.236;5.114;2024-02-21T10:13:34;20.48;;;12.05;;
59169;SDS011;52474;52.236;5.114;2024-02-21T10:16:04;19.05;;;11.30;;
59169;SDS011;52474;52.236;5.114;2024-02-21T10:18:33;18.90;;;11.25;;
59169;SDS011;52474;52.236;5.114;2024-02-21T10:21:10;21.17;;;11.18;;
59169;SDS011;52474;52.236;5.114;2024-02-21T10:23:43;20.77;;;11.65;;
59169;SDS011;52474;52.236;5.114;2024-02-21T10:26:16;19.88;;;10.48;;
59169;SDS011;52474;52.236;5.114;2024-02-21T12:25:17;13.30;;;8.10;;
59169;SDS011;52474;52.236;5.114;2024-02-21T12:27:48;12.32;;;8.40;;
59169;SDS011;52474;52.236;5.114;2024-02-21T12:30:14;14.60;;;8.82;;
59169;SDS011;52474;52.236;5.114;2024-02-21T12:32:43;12.40;;;8.88;;
59169;SDS011;52474;52.236;5.114;2024-02-21T12:35:09;14.57;;;8.80;;
59169;SDS011;52474;52.236;5.114;2024-02-21T12:37:35;12.32;;;8.45;;
59169;SDS011;52474;52.236;5.114;2024-02-21T12:40:00;15.02;;;9.38;;
59169;SDS011;52474;52.236;5.114;2024-02-21T12:42:26;12.05;;;9.00;;
59169;SDS011;52474;52.236;5.114;2024-02-21T12:44:54;13.45;;;8.43;;
59169;SDS011;52474;52.236;5.114;2024-02-21T12:47:19;12.75;;;8.90;;
59169;SDS011;52474;52.236;5.114;2024-02-21T12:49:49;12.10;;;9.63;;
59169;SDS011;52474;52.236;5.114;2024-02-21T12:52:14;13.85;;;8.40;;
59169;SDS011;52474;52.236;5.114;2024-02-21T12:54:40;15.80;;;10.35;;
59169;SDS011;52474;52.236;5.114;2024-02-21T12:57:08;13.73;;;8.85;;
59169;SDS011;52474;52.236;5.114;2024-02-21T12:59:33;12.27;;;8.93;;
59169;SDS011;52474;52.236;5.114;2024-02-21T13:01:59;11.93;;;8.65;;
59169;SDS011;52474;52.236;5.114;2024-02-21T13:04:25;13.75;;;9.77;;
59169;SDS011;52474;52.236;5.114;2024-02-21T13:06:51;12.70;;;9.77;;
59169;SDS011;52474;52.236;5.114;2024-02-21T13:09:16;11.32;;;9.98;;
59169;SDS011;52474;52.236;5.114;2024-02-21T13:11:43;12.52;;;9.30;;
59169;SDS011;52474;52.236;5.114;2024-02-21T13:14:12;14.90;;;9.88;;
59169;SDS011;52474;52.236;5.114;2024-02-21T13:16:37;16.58;;;10.10;;
59169;SDS011;52474;52.236;5.114;2024-02-21T13:19:06;11.93;;;9.60;;
59169;SDS011;52474;52.236;5.114;2024-02-21T13:21:35;12.23;;;9.57;;
59169;SDS011;52474;52.236;5.114;2024-02-21T13:24:01;13.07;;;9.70;;
59169;SDS011;52474;52.236;5.114;2024-02-21T13:26:27;13.07;;;9.63;;
59169;SDS011;52474;52.236;5.114;2024-02-21T13:28:53;15.02;;;10.95;;
59169;SDS011;52474;52.236;5.114;2024-02-21T13:31:19;14.60;;;9.70;;
59169;SDS011;52474;52.236;5.114;2024-02-21T13:33:45;11.50;;;9.80;;
59169;SDS011;52474;52.236;5.114;2024-02-21T13:36:11;13.43;;;9.25;;
59169;SDS011;52474;52.236;5.114;2024-02-21T13:38:37;15.13;;;9.00;;
59169;SDS011;52474;52.236;5.114;2024-02-21T13:41:06;15.57;;;8.90;;
59169;SDS011;52474;52.236;5.114;2024-02-21T13:43:32;14.93;;;8.57;;
59169;SDS011;52474;52.236;5.114;2024-02-21T13:45:59;12.82;;;8.60;;
59169;SDS011;52474;52.236;5.114;2024-02-21T13:48:28;14.32;;;8.50;;
59169;SDS011;52474;52.236;5.114;2024-02-21T13:50:54;12.02;;;8.05;;
59169;SDS011;52474;52.236;5.114;2024-02-21T13:53:20;15.25;;;8.30;;
59169;SDS011;52474;52.236;5.114;2024-02-21T13:55:47;11.23;;;7.93;;
59169;SDS011;52474;52.236;5.114;2024-02-21T13:58:15;12.85;;;8.40;;
59169;SDS011;52474;52.236;5.114;2024-02-21T14:00:41;14.57;;;8.10;;
59169;SDS011;52474;52.236;5.114;2024-02-21T14:03:07;13.70;;;8.65;;
59169;SDS011;52474;52.236;5.114;2024-02-21T14:05:32;9.52;;;7.90;;
59169;SDS011;52474;52.236;5.114;2024-02-21T14:07:58;13.15;;;7.97;;
59169;SDS011;52474;52.236;5.114;2024-02-21T14:10:24;16.42;;;8.35;;
59169;SDS011;52474;52.236;5.114;2024-02-21T14:12:49;13.02;;;8.40;;
59169;SDS011;52474;52.236;5.114;2024-02-21T14:15:15;14.50;;;8.48;;
59169;SDS011;52474;52.236;5.114;2024-02-21T14:17:43;14.52;;;8.40;;
59169;SDS011;52474;52.236;5.114;2024-02-21T14:20:09;14.73;;;8.30;;
59169;SDS011;52474;52.236;5.114;2024-02-21T14:22:35;13.73;;;8.68;;
59169;SDS011;52474;52.236;5.114;2024-02-21T14:25:03;13.75;;;8.85;;
59169;SDS011;52474;52.236;5.114;2024-02-21T14:27:32;15.50;;;8.13;;
59169;SDS011;52474;52.236;5.114;2024-02-21T14:29:57;14.10;;;8.65;;
59169;SDS011;52474;52.236;5.114;2024-02-21T14:32:23;20.27;;;8.48;;
59169;SDS011;52474;52.236;5.114;2024-02-21T14:34:49;14.38;;;8.50;;
59169;SDS011;52474;52.236;5.114;2024-02-21T14:37:15;11.65;;;8.13;;
59169;SDS011;52474;52.236;5.114;2024-02-21T14:39:41;13.90;;;8.00;;
59169;SDS011;52474;52.236;5.114;2024-02-21T14:42:07;11.43;;;7.07;;
59169;SDS011;52474;52.236;5.114;2024-02-21T14:44:35;17.42;;;7.93;;
59169;SDS011;52474;52.236;5.114;2024-02-21T14:47:01;14.38;;;7.47;;
59169;SDS011;52474;52.236;5.114;2024-02-21T14:49:29;14.25;;;7.75;;
59169;SDS011;52474;52.236;5.114;2024-02-21T14:51:55;14.50;;;7.70;;
59169;SDS011;52474;52.236;5.114;2024-02-21T14:54:20;14.85;;;8.02;;
59169;SDS011;52474;52.236;5.114;2024-02-21T14:56:46;15.63;;;7.90;;
59169;SDS011;52474;52.236;5.114;2024-02-21T14:59:12;16.63;;;8.05;;
59169;SDS011;52474;52.236;5.114;2024-02-21T15:01:38;17.13;;;8.27;;
59169;SDS011;52474;52.236;5.114;2024-02-21T15:04:04;13.93;;;8.10;;
59169;SDS011;52474;52.236;5.114;2024-02-21T15:06:30;13.20;;;7.68;;
59169;SDS011;52474;52.236;5.114;2024-02-21T15:08:57;12.07;;;7.50;;
59169;SDS011;52474;52.236;5.114;2024-02-21T15:11:24;14.73;;;7.20;;
59169;SDS011;52474;52.236;5.114;2024-02-21T15:13:49;11.77;;;8.00;;
59169;SDS011;52474;52.236;5.114;2024-02-21T15:16:15;16.60;;;8.60;;
59169;SDS011;52474;52.236;5.114;2024-02-21T15:18:44;11.93;;;7.65;;
59169;SDS011;52474;52.236;5.114;2024-02-21T15:21:09;11.85;;;7.72;;
59169;SDS011;52474;52.236;5.114;2024-02-21T15:23:39;17.02;;;8.30;;
59169;SDS011;52474;52.236;5.114;2024-02-21T15:26:06;10.65;;;7.13;;
59169;SDS011;52474;52.236;5.114;2024-02-21T15:28:32;12.57;;;8.18;;
59169;SDS011;52474;52.236;5.114;2024-02-21T15:30:57;13.10;;;7.38;;
59169;SDS011;52474;52.236;5.114;2024-02-21T15:33:23;10.80;;;7.63;;
59169;SDS011;52474;52.236;5.114;2024-02-21T15:35:49;13.73;;;8.95;;
59169;SDS011;52474;52.236;5.114;2024-02-21T15:38:15;17.45;;;7.53;;
59169;SDS011;52474;52.236;5.114;2024-02-21T15:40:41;13.30;;;7.95;;
59169;SDS011;52474;52.236;5.114;2024-02-21T15:43:07;17.15;;;8.63;;
59169;SDS011;52474;52.236;5.114;2024-02-21T15:45:33;22.15;;;9.25;;
59169;SDS011;52474;52.236;5.114;2024-02-21T15:47:59;14.15;;;7.75;;
59169;SDS011;52474;52.236;5.114;2024-02-21T15:50:25;12.90;;;8.18;;
59169;SDS011;52474;52.236;5.114;2024-02-21T15:52:54;13.43;;;8.10;;
59169;SDS011;52474;52.236;5.114;2024-02-21T15:55:20;13.30;;;8.45;;
59169;SDS011;52474;52.236;5.114;2024-02-21T15:57:46;15.38;;;8.60;;
59169;SDS011;52474;52.236;5.114;2024-02-21T16:00:14;14.32;;;8.38;;
59169;SDS011;52474;52.236;5.114;2024-02-21T16:02:40;14.85;;;8.93;;
59169;SDS011;52474;52.236;5.114;2024-02-21T16:05:09;18.77;;;9.55;;
59169;SDS011;52474;52.236;5.114;2024-02-21T16:07:37;16.42;;;8.95;;
59169;SDS011;52474;52.236;5.114;2024-02-21T16:10:04;14.13;;;10.00;;
59169;SDS011;52474;52.236;5.114;2024-02-21T16:12:31;15.93;;;8.95;;
59169;SDS011;52474;52.236;5.114;2024-02-21T16:14:57;12.73;;;9.13;;
59169;SDS011;52474;52.236;5.114;2024-02-21T16:17:23;15.88;;;9.05;;
59169;SDS011;52474;52.236;5.114;2024-02-21T16:19:50;16.83;;;8.63;;
59169;SDS011;52474;52.236;5.114;2024-02-21T16:22:15;13.23;;;8.90;;
59169;SDS011;52474;52.236;5.114;2024-02-21T16:24:41;17.10;;;9.07;;
59169;SDS011;52474;52.236;5.114;2024-02-21T16:27:07;15.13;;;7.95;;
59169;SDS011;52474;52.236;5.114;2024-02-21T16:29:35;14.30;;;8.10;;
59169;SDS011;52474;52.236;5.114;2024-02-21T16:32:01;17.67;;;8.68;;